Time;durP1;ratioP1;P1;durP2;ratioP2;P2;SDS_P1;SDS_P2;PMS_P1;PMS_P2;Temp;Humidity;BMP_temperature;BMP_pressure;BME280_temperature;BME280_humidity;BME280_pressure;Samples;Min_cycle;Max_cycle;Signal;HPM_P1;HPM_P2
2023/04/27 00:02:00;;;;;;;;;;;11.60;99.90;;;;;;5074319;28;19913;-72
2023/04/27 00:04:26;;;;;;;;;;;11.60;99.90;;;;;;5074349;28;19908;-75
2023/04/27 00:06:52;;;;;;;;;;;11.60;99.90;;;;;;5074354;28;19909;-72
2023/04/27 00:09:18;;;;;;;;;;;11.60;99.90;;;;;;5056666;28;19916;-72
2023/04/27 00:11:43;;;;;;;;;;;11.40;99.90;;;;;;5074367;28;19909;-72
2023/04/27 00:14:09;;;;;;;;;;;11.20;99.90;;;;;;5074173;28;19957;-72
2023/04/27 00:16:34;;;;;;;;;;;11.00;99.90;;;;;;5074132;28;19953;-73
2023/04/27 00:19:00;;;;;;;;;;;11.00;99.90;;;;;;5074173;28;19920;-73
2023/04/27 00:21:25;;;;;;;;;;;11.00;99.90;;;;;;5074384;28;19908;-74
2023/04/27 00:23:52;;;;;;;;;;;11.00;99.90;;;;;;5073983;28;19912;-74
2023/04/27 00:26:19;;;;;;;;;;;11.00;99.90;;;;;;5074087;28;19908;-71
2023/04/27 00:28:45;;;;;;;;;;;11.00;99.90;;;;;;5073970;28;19909;-73
2023/04/27 00:31:11;;;;;;;;;;;10.90;99.90;;;;;;5055963;28;19912;-74
2023/04/27 00:33:36;;;;;;;;;;;10.80;99.90;;;;;;5074018;28;20386;-74
2023/04/27 00:36:02;;;;;;;;;;;10.70;99.90;;;;;;5073984;28;20003;-75
2023/04/27 00:38:28;;;;;;;;;;;10.50;99.90;;;;;;5073827;28;20289;-72
2023/04/27 00:41:00;;;;;;;;;;;10.60;99.90;;;;;;5073929;28;19909;-73
2023/04/27 00:43:26;;;;;;;;;;;10.50;99.90;;;;;;5073955;28;20316;-72
2023/04/27 00:45:54;;;;;;;;;;;10.40;99.90;;;;;;5072998;28;20558;-72
2023/04/27 00:48:19;;;;;;;;;;;10.40;99.90;;;;;;5073728;28;19916;-72
2023/04/27 00:50:45;;;;;;;;;;;10.50;99.90;;;;;;5073689;28;19908;-74
2023/04/27 00:53:11;;;;;;;;;;;10.60;99.90;;;;;;5073820;28;19912;-72
2023/04/27 00:55:36;;;;;;;;;;;10.60;99.90;;;;;;5073296;28;19918;-73
2023/04/27 00:58:02;;;;;;;;;;;10.70;99.90;;;;;;5073554;28;20280;-73
2023/04/27 01:00:27;;;;;;;;;;;10.50;99.90;;;;;;5073915;28;19909;-73
2023/04/27 01:02:54;;;;;;;;;;;10.50;99.90;;;;;;5055575;28;19913;-72
2023/04/27 01:05:20;;;;;;;;;;;10.50;99.90;;;;;;5073820;28;19916;-73
2023/04/27 01:07:46;;;;;;;;;;;10.60;99.90;;;;;;5073551;28;20300;-74
2023/04/27 01:10:11;;;;;;;;;;;10.60;99.90;;;;;;5073586;28;19917;-72
2023/04/27 01:12:37;;;;;;;;;;;10.60;99.90;;;;;;5073533;28;19915;-73
2023/04/27 01:15:04;;;;;;;;;;;10.50;99.90;;;;;;5073588;28;20265;-74
2023/04/27 01:17:29;;;;;;;;;;;10.40;99.90;;;;;;5077292;28;20430;-72
2023/04/27 01:19:55;;;;;;;;;;;10.30;99.90;;;;;;5077936;28;19912;-75
2023/04/27 01:22:21;;;;;;;;;;;10.20;99.90;;;;;;5077577;28;19982;-73
2023/04/27 01:24:46;;;;;;;;;;;10.10;99.90;;;;;;5077432;28;19908;-71
2023/04/27 01:27:12;;;;;;;;;;;10.10;99.90;;;;;;5077434;28;20391;-73
2023/04/27 01:29:38;;;;;;;;;;;10.10;99.90;;;;;;5077392;28;19944;-72
2023/04/27 01:32:04;;;;;;;;;;;10.00;99.90;;;;;;5077345;28;19909;-73
2023/04/27 01:34:30;;;;;;;;;;;10.10;99.90;;;;;;5077292;28;19909;-73
2023/04/27 01:36:56;;;;;;;;;;;10.10;99.90;;;;;;5077507;28;20273;-72
2023/04/27 01:39:21;;;;;;;;;;;10.10;99.90;;;;;;5077223;28;19915;-73
2023/04/27 01:41:47;;;;;;;;;;;10.10;99.90;;;;;;5076922;28;19920;-72
2023/04/27 01:44:12;;;;;;;;;;;10.00;99.90;;;;;;5076725;28;19924;-73
2023/04/27 01:46:38;;;;;;;;;;;10.00;99.90;;;;;;5077024;28;20277;-71
2023/04/27 01:49:04;;;;;;;;;;;9.90;99.90;;;;;;5076917;28;19908;-71
2023/04/27 01:51:31;;;;;;;;;;;10.00;99.90;;;;;;5077077;28;20003;-72
2023/04/27 01:53:57;;;;;;;;;;;9.90;99.90;;;;;;5076859;28;19909;-73
2023/04/27 01:56:23;;;;;;;;;;;9.90;99.90;;;;;;5077011;28;19999;-74
2023/04/27 01:58:48;;;;;;;;;;;10.00;99.90;;;;;;5076859;28;19909;-72
2023/04/27 02:01:14;;;;;;;;;;;10.00;99.90;;;;;;5076698;28;19909;-72
2023/04/27 02:03:40;;;;;;;;;;;10.00;99.90;;;;;;5076580;28;19912;-73
2023/04/27 02:06:06;;;;;;;;;;;10.00;99.90;;;;;;5076647;28;19915;-73
2023/04/27 02:08:32;;;;;;;;;;;9.90;99.90;;;;;;5077069;28;19912;-72
2023/04/27 02:10:58;;;;;;;;;;;9.90;99.90;;;;;;5076569;28;19948;-72
2023/04/27 02:13:24;;;;;;;;;;;9.90;99.90;;;;;;5076662;28;19915;-73
2023/04/27 02:15:49;;;;;;;;;;;9.90;99.90;;;;;;5076478;28;19908;-72
2023/04/27 02:18:15;;;;;;;;;;;9.90;99.90;;;;;;5076555;28;19916;-72
2023/04/27 02:20:41;;;;;;;;;;;9.90;99.90;;;;;;5058433;28;20390;-74
2023/04/27 02:23:06;;;;;;;;;;;9.90;99.90;;;;;;5076714;28;19912;-72
2023/04/27 02:25:35;;;;;;;;;;;9.90;99.90;;;;;;5076717;28;19909;-73
2023/04/27 02:28:00;;;;;;;;;;;9.90;99.90;;;;;;5075184;28;19995;-72
2023/04/27 02:30:27;;;;;;;;;;;9.90;99.90;;;;;;5058275;28;19951;-74
2023/04/27 02:32:52;;;;;;;;;;;9.90;99.90;;;;;;5076146;28;19954;-72
2023/04/27 02:35:18;;;;;;;;;;;9.70;99.90;;;;;;5076127;28;19913;-72
2023/04/27 02:37:43;;;;;;;;;;;9.60;99.90;;;;;;5076106;28;19914;-73
2023/04/27 02:40:09;;;;;;;;;;;9.60;99.90;;;;;;5076227;28;20327;-73
2023/04/27 02:42:37;;;;;;;;;;;9.60;99.90;;;;;;5057768;28;19927;-73
2023/04/27 02:45:02;;;;;;;;;;;9.60;99.90;;;;;;5076132;28;19915;-73
2023/04/27 02:47:28;;;;;;;;;;;9.60;99.90;;;;;;5075928;28;20003;-73
2023/04/27 02:49:53;;;;;;;;;;;9.60;99.90;;;;;;5075895;28;19915;-73
2023/04/27 02:52:19;;;;;;;;;;;9.60;99.90;;;;;;5076099;28;19909;-73
2023/04/27 02:54:45;;;;;;;;;;;9.50;99.90;;;;;;5075739;28;20412;-72
2023/04/27 02:57:10;;;;;;;;;;;9.50;99.90;;;;;;5075811;28;19920;-72
2023/04/27 02:59:36;;;;;;;;;;;9.40;99.90;;;;;;5075581;28;19939;-73
2023/04/27 03:02:01;;;;;;;;;;;9.40;99.90;;;;;;5075603;28;20288;-73
2023/04/27 03:04:27;;;;;;;;;;;9.60;99.90;;;;;;5057576;28;19908;-75
2023/04/27 03:06:53;;;;;;;;;;;9.60;99.90;;;;;;5075373;28;19908;-72
2023/04/27 03:09:18;;;;;;;;;;;9.70;99.90;;;;;;5057544;28;19913;-72
2023/04/27 03:11:44;;;;;;;;;;;9.90;99.90;;;;;;5075900;28;19948;-74
2023/04/27 03:14:11;;;;;;;;;;;9.90;99.90;;;;;;5075117;28;19908;-72
2023/04/27 03:16:37;;;;;;;;;;;9.80;99.90;;;;;;5075337;28;19948;-71
2023/04/27 03:19:02;;;;;;;;;;;9.80;99.90;;;;;;5075347;28;20001;-74
2023/04/27 03:21:28;;;;;;;;;;;10.00;99.90;;;;;;5075282;28;19909;-74
2023/04/27 03:23:53;;;;;;;;;;;10.10;99.90;;;;;;5057119;28;19912;-72
2023/04/27 03:26:19;;;;;;;;;;;10.10;99.90;;;;;;5075167;28;19909;-73
2023/04/27 03:28:45;;;;;;;;;;;10.00;99.90;;;;;;5075125;28;19909;-74
2023/04/27 03:31:12;;;;;;;;;;;9.90;99.90;;;;;;5075065;28;19912;-71
2023/04/27 03:33:38;;;;;;;;;;;9.70;99.90;;;;;;5074970;28;19977;-73
2023/04/27 03:36:04;;;;;;;;;;;9.90;99.90;;;;;;5075102;28;19916;-74
2023/04/27 03:38:30;;;;;;;;;;;10.10;99.90;;;;;;5074604;28;19955;-73
2023/04/27 03:40:56;;;;;;;;;;;10.30;99.90;;;;;;5074789;28;20277;-72
2023/04/27 03:43:22;;;;;;;;;;;10.30;99.90;;;;;;5056555;28;20369;-73
2023/04/27 03:45:47;;;;;;;;;;;10.20;99.90;;;;;;5074722;28;20003;-74
2023/04/27 03:48:13;;;;;;;;;;;10.30;99.90;;;;;;5074666;28;19909;-74
2023/04/27 03:50:39;;;;;;;;;;;10.30;99.90;;;;;;5074673;28;19909;-74
2023/04/27 03:53:05;;;;;;;;;;;10.40;99.90;;;;;;5074645;28;19957;-72
2023/04/27 03:55:31;;;;;;;;;;;10.50;99.90;;;;;;5074691;28;19912;-73
2023/04/27 03:57:56;;;;;;;;;;;10.40;99.90;;;;;;5074466;28;19916;-73
2023/04/27 04:00:22;;;;;;;;;;;10.30;99.90;;;;;;5074729;28;19909;-74
2023/04/27 04:02:48;;;;;;;;;;;10.30;99.90;;;;;;5074546;28;20008;-73
2023/04/27 04:05:14;;;;;;;;;;;10.40;99.90;;;;;;5074457;28;20379;-74
2023/04/27 04:07:43;;;;;;;;;;;10.40;99.90;;;;;;5074400;28;19999;-72
2023/04/27 04:10:09;;;;;;;;;;;10.50;99.90;;;;;;5074309;28;19909;-75
2023/04/27 04:12:34;;;;;;;;;;;10.50;99.90;;;;;;5074212;28;20432;-74
2023/04/27 04:15:00;;;;;;;;;;;10.50;99.90;;;;;;5074336;28;19959;-73
2023/04/27 04:17:26;;;;;;;;;;;10.50;99.90;;;;;;5056271;28;19951;-74
2023/04/27 04:19:51;;;;;;;;;;;10.40;99.90;;;;;;5074152;28;19939;-72
2023/04/27 04:22:17;;;;;;;;;;;10.20;99.90;;;;;;5074022;28;19908;-74
2023/04/27 04:24:42;;;;;;;;;;;10.20;99.90;;;;;;5074128;28;19909;-73
2023/04/27 04:27:08;;;;;;;;;;;10.10;99.90;;;;;;5074075;28;19909;-72
2023/04/27 04:29:34;;;;;;;;;;;10.10;99.90;;;;;;5073963;28;19958;-73
2023/04/27 04:31:59;;;;;;;;;;;10.10;99.90;;;;;;5074271;28;20388;-74
2023/04/27 04:34:26;;;;;;;;;;;10.10;99.90;;;;;;5074098;28;19916;-73
2023/04/27 04:36:51;;;;;;;;;;;10.00;99.90;;;;;;5073826;28;19912;-72
2023/04/27 04:39:20;;;;;;;;;;;10.00;99.90;;;;;;5073978;28;20292;-75
2023/04/27 04:41:47;;;;;;;;;;;10.00;99.90;;;;;;5073828;28;19925;-75
2023/04/27 04:44:14;;;;;;;;;;;10.00;99.90;;;;;;5073975;28;19920;-72
2023/04/27 04:46:40;;;;;;;;;;;10.10;99.90;;;;;;5073751;28;19908;-73
2023/04/27 04:49:06;;;;;;;;;;;10.10;99.90;;;;;;5073747;28;19909;-73
2023/04/27 04:51:32;;;;;;;;;;;10.20;99.90;;;;;;5073113;28;19935;-72
2023/04/27 04:53:57;;;;;;;;;;;10.10;99.90;;;;;;5073889;28;19909;-72
2023/04/27 04:56:23;;;;;;;;;;;9.90;99.90;;;;;;5073632;28;19977;-72
2023/04/27 04:58:48;;;;;;;;;;;10.00;99.90;;;;;;5073591;28;20284;-73
2023/04/27 05:01:14;;;;;;;;;;;10.00;99.90;;;;;;5073835;28;19909;-73
2023/04/27 05:03:40;;;;;;;;;;;10.10;99.90;;;;;;5073575;28;19912;-73
2023/04/27 05:06:05;;;;;;;;;;;10.20;99.90;;;;;;5073515;28;19909;-72
2023/04/27 05:08:31;;;;;;;;;;;10.20;99.90;;;;;;5073973;28;19961;-73
2023/04/27 05:10:57;;;;;;;;;;;10.40;99.90;;;;;;5073846;28;19954;-73
2023/04/27 05:13:23;;;;;;;;;;;10.30;99.90;;;;;;5073759;28;20309;-73
2023/04/27 05:15:49;;;;;;;;;;;10.20;99.90;;;;;;5073511;28;19909;-73
2023/04/27 05:18:15;;;;;;;;;;;10.20;99.90;;;;;;5073420;28;20284;-74
2023/04/27 05:20:40;;;;;;;;;;;10.20;99.90;;;;;;5073427;28;19912;-73
2023/04/27 05:23:06;;;;;;;;;;;10.10;99.90;;;;;;5073313;28;19999;-74
2023/04/27 05:25:32;;;;;;;;;;;10.10;99.90;;;;;;5073362;28;20281;-73
2023/04/27 05:27:58;;;;;;;;;;;10.20;99.90;;;;;;5073359;28;20369;-72
2023/04/27 05:30:24;;;;;;;;;;;10.10;99.90;;;;;;5073797;28;19932;-72
2023/04/27 05:32:50;;;;;;;;;;;10.20;99.90;;;;;;5073314;28;19915;-74
2023/04/27 05:35:15;;;;;;;;;;;10.10;99.90;;;;;;5073253;28;19908;-72
2023/04/27 05:37:41;;;;;;;;;;;10.20;99.90;;;;;;5073400;28;20070;-72
2023/04/27 05:40:08;;;;;;;;;;;10.30;99.90;;;;;;5073190;28;19909;-73
2023/04/27 05:42:34;;;;;;;;;;;10.40;99.90;;;;;;5072969;28;19926;-73
2023/04/27 05:45:00;;;;;;;;;;;10.40;99.90;;;;;;5073359;28;19908;-74
2023/04/27 05:47:25;;;;;;;;;;;10.50;99.90;;;;;;5073168;28;19909;-73
2023/04/27 05:49:51;;;;;;;;;;;10.50;99.90;;;;;;5073122;28;19912;-72
2023/04/27 05:52:17;;;;;;;;;;;10.60;99.90;;;;;;5073166;28;19909;-73
2023/04/27 05:54:46;;;;;;;;;;;10.60;99.90;;;;;;5073114;28;19909;-72
2023/04/27 05:57:12;;;;;;;;;;;10.90;99.90;;;;;;5073046;28;19934;-71
2023/04/27 05:59:38;;;;;;;;;;;10.90;99.90;;;;;;5073203;28;20520;-72
2023/04/27 06:02:03;;;;;;;;;;;11.20;99.90;;;;;;5074376;28;19938;-74
2023/04/27 06:04:31;;;;;;;;;;;11.20;99.90;;;;;;5076637;28;20289;-72
2023/04/27 06:06:57;;;;;;;;;;;11.30;99.90;;;;;;5076628;28;19909;-71
2023/04/27 06:09:22;;;;;;;;;;;11.40;99.90;;;;;;5076684;28;20280;-74
2023/04/27 06:11:48;;;;;;;;;;;11.40;99.90;;;;;;5076519;28;19915;-74
2023/04/27 06:14:13;;;;;;;;;;;11.40;99.90;;;;;;5076426;28;19916;-73
2023/04/27 06:16:39;;;;;;;;;;;11.30;99.90;;;;;;5058309;28;19908;-72
2023/04/27 06:19:05;;;;;;;;;;;11.40;99.90;;;;;;5076327;28;19908;-73
2023/04/27 06:21:32;;;;;;;;;;;11.40;99.90;;;;;;5076387;28;19913;-74
2023/04/27 06:23:58;;;;;;;;;;;11.50;99.90;;;;;;5058176;28;19917;-74
2023/04/27 06:26:23;;;;;;;;;;;11.60;99.90;;;;;;5058349;28;19908;-72
2023/04/27 06:28:49;;;;;;;;;;;11.80;99.90;;;;;;5076442;28;19908;-73
2023/04/27 06:31:15;;;;;;;;;;;12.00;99.90;;;;;;5076351;28;19940;-72
2023/04/27 06:33:40;;;;;;;;;;;12.00;99.90;;;;;;5076243;28;19999;-73
2023/04/27 06:36:06;;;;;;;;;;;11.80;99.90;;;;;;5076128;28;19909;-74
2023/04/27 06:38:32;;;;;;;;;;;11.90;99.90;;;;;;5076146;28;19961;-72
2023/04/27 06:40:58;;;;;;;;;;;11.60;99.90;;;;;;5075888;28;19909;-71
2023/04/27 06:43:23;;;;;;;;;;;11.60;99.90;;;;;;5076030;28;19935;-74
2023/04/27 06:45:49;;;;;;;;;;;11.60;99.90;;;;;;5075965;28;20444;-72
2023/04/27 06:48:15;;;;;;;;;;;11.60;99.90;;;;;;5057979;28;19987;-72
2023/04/27 06:50:41;;;;;;;;;;;11.60;99.90;;;;;;5075882;28;19913;-74
2023/04/27 06:53:07;;;;;;;;;;;11.60;99.90;;;;;;5075873;28;20387;-72
2023/04/27 06:55:33;;;;;;;;;;;11.50;99.90;;;;;;5075743;28;20280;-73
2023/04/27 06:57:59;;;;;;;;;;;11.50;99.90;;;;;;5075858;28;19915;-72
2023/04/27 07:00:24;;;;;;;;;;;11.50;99.90;;;;;;5075718;28;19936;-73
2023/04/27 07:02:50;;;;;;;;;;;11.50;99.90;;;;;;5075607;28;19912;-73
2023/04/27 07:05:15;;;;;;;;;;;11.50;99.90;;;;;;5075620;28;20390;-72
2023/04/27 07:07:41;;;;;;;;;;;11.30;99.90;;;;;;5075583;28;20011;-73
2023/04/27 07:10:07;;;;;;;;;;;11.50;99.90;;;;;;5075504;28;20292;-72
2023/04/27 07:12:32;;;;;;;;;;;11.50;99.90;;;;;;5075562;28;19995;-73
2023/04/27 07:14:58;;;;;;;;;;;11.60;99.90;;;;;;5074863;28;20046;-74
2023/04/27 07:17:24;;;;;;;;;;;11.70;99.90;;;;;;5075393;28;19915;-73
2023/04/27 07:19:49;;;;;;;;;;;11.80;99.90;;;;;;5075248;28;19915;-72
2023/04/27 07:22:15;;;;;;;;;;;12.10;99.90;;;;;;5074933;28;19909;-73
2023/04/27 07:24:40;;;;;;;;;;;12.20;99.90;;;;;;5075483;28;20020;-75
2023/04/27 07:27:07;;;;;;;;;;;12.40;99.90;;;;;;5075230;28;19915;-73
2023/04/27 07:29:32;;;;;;;;;;;12.40;99.90;;;;;;5057153;28;20387;-73
2023/04/27 07:31:58;;;;;;;;;;;12.40;99.90;;;;;;5075089;28;19959;-73
2023/04/27 07:34:23;;;;;;;;;;;12.50;99.90;;;;;;5075014;28;20376;-76
2023/04/27 07:36:52;;;;;;;;;;;12.50;99.90;;;;;;5056162;28;20004;-73
2023/04/27 07:39:19;;;;;;;;;;;12.60;99.90;;;;;;5073028;28;19909;-73
2023/04/27 07:41:45;;;;;;;;;;;12.60;99.90;;;;;;5072804;28;19978;-73
2023/04/27 07:44:11;;;;;;;;;;;12.50;99.90;;;;;;5072933;28;19916;-73
2023/04/27 07:46:37;;;;;;;;;;;12.50;99.90;;;;;;5073049;28;19909;-73
2023/04/27 07:49:03;;;;;;;;;;;12.20;99.90;;;;;;5073803;28;19908;-72
2023/04/27 07:51:28;;;;;;;;;;;12.20;99.90;;;;;;5073853;28;19916;-73
2023/04/27 07:53:54;;;;;;;;;;;12.20;99.90;;;;;;5074527;28;20284;-73
2023/04/27 07:56:20;;;;;;;;;;;12.20;99.90;;;;;;5074570;28;19908;-73
2023/04/27 07:58:46;;;;;;;;;;;12.20;99.90;;;;;;5074406;28;19987;-74
2023/04/27 08:01:11;;;;;;;;;;;12.20;99.90;;;;;;5074621;28;20336;-73
2023/04/27 08:03:37;;;;;;;;;;;12.10;99.90;;;;;;5074458;28;19912;-74
2023/04/27 08:06:03;;;;;;;;;;;12.20;99.90;;;;;;5074671;28;19908;-73
2023/04/27 08:08:29;;;;;;;;;;;12.20;99.90;;;;;;5074534;28;19908;-73
2023/04/27 08:10:55;;;;;;;;;;;12.20;99.90;;;;;;5074581;28;20012;-73
2023/04/27 08:13:20;;;;;;;;;;;12.40;99.90;;;;;;5074316;28;19912;-74
2023/04/27 08:15:46;;;;;;;;;;;12.30;99.90;;;;;;5074429;28;20327;-73
2023/04/27 08:18:11;;;;;;;;;;;12.30;99.90;;;;;;5074475;28;19915;-73
2023/04/27 08:20:37;;;;;;;;;;;12.40;99.90;;;;;;5074134;28;19908;-73
2023/04/27 08:23:03;;;;;;;;;;;12.40;99.90;;;;;;5074029;28;20361;-74
2023/04/27 08:25:28;;;;;;;;;;;12.30;99.90;;;;;;5073152;28;19908;-74
2023/04/27 08:27:54;;;;;;;;;;;12.40;99.90;;;;;;5074229;28;19908;-74
2023/04/27 08:30:20;;;;;;;;;;;12.30;99.90;;;;;;5073885;28;19909;-74
2023/04/27 08:32:46;;;;;;;;;;;12.40;99.90;;;;;;5055983;28;19908;-73
2023/04/27 08:35:13;;;;;;;;;;;12.40;99.90;;;;;;5073794;28;19935;-73
2023/04/27 08:37:39;;;;;;;;;;;12.40;99.90;;;;;;5073848;28;19908;-73
2023/04/27 08:40:06;;;;;;;;;;;12.20;99.90;;;;;;5073769;28;20424;-73
2023/04/27 08:42:32;;;;;;;;;;;12.30;99.90;;;;;;5073474;28;20012;-74
2023/04/27 08:44:58;;;;;;;;;;;12.20;99.90;;;;;;5073695;28;20003;-74
2023/04/27 08:47:23;;;;;;;;;;;12.20;99.90;;;;;;5073791;28;19944;-74
2023/04/27 08:49:49;;;;;;;;;;;12.10;99.90;;;;;;5074103;28;19915;-74
2023/04/27 08:52:15;;;;;;;;;;;12.00;99.90;;;;;;5073704;28;19940;-71
2023/04/27 08:54:41;;;;;;;;;;;12.00;99.90;;;;;;5073716;28;19942;-74
2023/04/27 08:57:10;;;;;;;;;;;12.00;99.90;;;;;;5073696;28;20284;-74
2023/04/27 08:59:36;;;;;;;;;;;12.00;99.90;;;;;;5073523;28;19947;-74
2023/04/27 09:02:02;;;;;;;;;;;11.90;1.00;;;;;;5055539;28;19909;-73
2023/04/27 09:04:38;;;;;;;;;;;11.90;1.00;;;;;;5073483;28;20335;-74
2023/04/27 09:07:13;;;;;;;;;;;11.90;1.00;;;;;;5073635;28;19909;-75
2023/04/27 09:09:38;;;;;;;;;;;12.00;1.00;;;;;;5074039;28;19912;-74
2023/04/27 09:12:14;;;;;;;;;;;12.00;1.00;;;;;;5073744;28;20005;-74
2023/04/27 09:14:40;;;;;;;;;;;12.20;1.00;;;;;;5073747;28;19916;-73
2023/04/27 09:17:06;;;;;;;;;;;12.20;1.00;;;;;;5073470;28;19909;-73
2023/04/27 09:19:32;;;;;;;;;;;12.50;1.00;;;;;;5073421;28;19913;-73
2023/04/27 09:22:04;;;;;;;;;;;12.70;1.00;;;;;;5073401;28;19908;-75
2023/04/27 09:24:29;;;;;;;;;;;12.70;1.00;;;;;;5073578;28;19912;-73
2023/04/27 09:26:55;;;;;;;;;;;12.60;1.00;;;;;;5073528;28;19953;-74
2023/04/27 09:29:30;;;;;;;;;;;12.70;1.00;;;;;;5055406;28;19913;-73
2023/04/27 09:31:56;;;;;;;;;;;12.60;1.00;;;;;;5073527;28;19915;-73
2023/04/27 09:34:22;;;;;;;;;;;12.60;1.00;;;;;;5073276;28;19909;-73
2023/04/27 09:36:48;;;;;;;;;;;12.70;1.00;;;;;;5074646;28;20394;-74
2023/04/27 09:39:14;;;;;;;;;;;12.70;1.00;;;;;;5059297;28;20391;-74
2023/04/27 09:41:40;;;;;;;;;;;12.80;1.00;;;;;;5055676;28;20347;-72
2023/04/27 09:44:06;;;;;;;;;;;13.00;1.00;;;;;;5057021;28;19917;-72
2023/04/27 09:46:32;;;;;;;;;;;12.90;1.00;;;;;;5057041;28;19966;-73
2023/04/27 09:48:58;;;;;;;;;;;12.80;1.00;;;;;;5056969;28;19908;-72
2023/04/27 09:51:23;;;;;;;;;;;12.80;1.00;;;;;;5056950;28;20000;-73
2023/04/27 09:53:51;;;;;;;;;;;12.90;1.00;;;;;;5056898;28;20388;-75
2023/04/27 09:56:56;;;;;;;;;;;13.00;1.00;;;;;;5056931;28;19963;-73
2023/04/27 09:59:40;;;;;;;;;;;12.90;1.00;;;;;;5015063;28;19953;-74
2023/04/27 10:02:06;;;;;;;;;;;13.00;1.00;;;;;;5015177;28;20490;-73
2023/04/27 10:04:47;;;;;;;;;;;13.20;1.00;;;;;;5039745;28;19916;-74
2023/04/27 10:07:13;;;;;;;;;;;13.20;1.00;;;;;;5057089;28;20293;-74
2023/04/27 10:09:40;;;;;;;;;;;13.40;1.00;;;;;;5056913;28;19909;-74
2023/04/27 10:12:13;;;;;;;;;;;13.50;1.00;;;;;;5056693;28;19913;-75
2023/04/27 10:14:46;;;;;;;;;;;13.60;1.00;;;;;;5056639;28;19912;-73
2023/04/27 10:17:12;;;;;;;;;;;13.70;1.00;;;;;;5056747;28;19908;-74
2023/04/27 10:19:38;;;;;;;;;;;14.00;1.00;;;;;;5056420;28;19908;-74
2023/04/27 10:22:04;;;;;;;;;;;14.00;1.00;;;;;;5056639;28;20377;-74
2023/04/27 10:24:30;;;;;;;;;;;13.90;1.00;;;;;;5056328;28;19912;-73
2023/04/27 10:27:00;;;;;;;;;;;13.80;1.00;;;;;;5056925;28;20003;-73
2023/04/27 10:29:33;;;;;;;;;;;13.90;1.00;;;;;;5056426;28;19984;-73
2023/04/27 10:32:04;;;;;;;;;;;13.90;1.00;;;;;;5056378;28;20380;-72
2023/04/27 10:34:33;;;;;;;;;;;13.80;1.00;;;;;;5056290;28;19995;-74
2023/04/27 10:37:04;;;;;;;;;;;13.90;1.00;;;;;;5056155;28;19908;-74
2023/04/27 10:39:33;;;;;;;;;;;14.10;1.00;;;;;;5056334;28;20393;-75
2023/04/27 10:41:59;;;;;;;;;;;14.20;1.00;;;;;;5066331;28;20460;-74
2023/04/27 10:44:27;;;;;;;;;;;14.30;1.00;;;;;;5075980;28;19912;-74
2023/04/27 10:46:53;;;;;;;;;;;14.40;1.00;;;;;;5076467;28;20333;-75
2023/04/27 10:49:19;;;;;;;;;;;14.40;1.00;;;;;;5074862;28;19909;-74
2023/04/27 10:51:46;;;;;;;;;;;14.40;1.00;;;;;;5075922;28;20288;-74
2023/04/27 10:54:12;;;;;;;;;;;14.30;1.00;;;;;;5075805;28;19987;-75
2023/04/27 10:56:38;;;;;;;;;;;14.50;1.00;;;;;;5075780;28;19909;-73
2023/04/27 10:59:04;;;;;;;;;;;14.50;1.00;;;;;;5075704;28;20297;-74
2023/04/27 11:01:30;;;;;;;;;;;14.50;1.00;;;;;;5075700;28;19915;-73
2023/04/27 11:03:59;;;;;;;;;;;14.50;1.00;;;;;;5075727;28;19919;-73
2023/04/27 11:06:26;;;;;;;;;;;14.60;1.00;;;;;;5075608;28;19915;-74
2023/04/27 11:08:52;;;;;;;;;;;14.60;1.00;;;;;;5075493;28;19958;-73
2023/04/27 11:11:18;;;;;;;;;;;14.60;1.00;;;;;;5075528;28;19909;-74
2023/04/27 11:13:47;;;;;;;;;;;14.60;1.00;;;;;;5075654;28;20365;-73
2023/04/27 11:16:14;;;;;;;;;;;14.60;1.00;;;;;;5075750;28;19958;-74
2023/04/27 11:18:39;;;;;;;;;;;14.70;1.00;;;;;;5075418;28;19962;-73
2023/04/27 11:21:06;;;;;;;;;;;14.70;1.00;;;;;;5075342;28;19971;-74
2023/04/27 11:23:38;;;;;;;;;;;14.80;1.00;;;;;;5075210;28;19916;-75
2023/04/27 11:26:14;;;;;;;;;;;14.80;1.00;;;;;;5075617;28;19915;-74
2023/04/27 11:28:40;;;;;;;;;;;14.70;99.90;;;;;;5075283;28;20375;-74
2023/04/27 11:31:06;;;;;;;;;;;14.70;99.90;;;;;;5075102;28;19908;-74
2023/04/27 11:33:32;;;;;;;;;;;14.80;1.00;;;;;;5075288;28;19923;-73
2023/04/27 11:35:58;;;;;;;;;;;14.80;1.00;;;;;;5075175;28;19915;-74
2023/04/27 11:38:25;;;;;;;;;;;14.80;1.00;;;;;;5075094;28;19915;-72
2023/04/27 11:41:06;;;;;;;;;;;14.80;1.00;;;;;;5056772;28;20250;-73
2023/04/27 11:43:32;;;;;;;;;;;14.80;99.90;;;;;;5074822;28;19922;-73
2023/04/27 11:46:01;;;;;;;;;;;14.80;1.00;;;;;;5075027;28;19909;-74
2023/04/27 11:48:27;;;;;;;;;;;15.00;1.00;;;;;;5074725;28;19975;-73
2023/04/27 11:50:52;;;;;;;;;;;15.10;1.00;;;;;;5074764;28;20438;-73
2023/04/27 11:53:31;;;;;;;;;;;15.10;1.00;;;;;;5074692;28;19908;-72
2023/04/27 11:55:59;;;;;;;;;;;15.10;99.90;;;;;;5074784;28;19966;-74
2023/04/27 11:58:26;;;;;;;;;;;15.20;99.90;;;;;;5074458;28;19916;-72
2023/04/27 12:00:52;;;;;;;;;;;15.30;1.00;;;;;;5074313;28;20428;-73
2023/04/27 12:03:17;;;;;;;;;;;15.20;99.90;;;;;;5074407;28;20008;-75
2023/04/27 12:05:47;;;;;;;;;;;15.30;99.90;;;;;;5074642;28;20454;-72
2023/04/27 12:08:13;;;;;;;;;;;15.40;1.00;;;;;;5074623;28;19915;-74
2023/04/27 12:10:39;;;;;;;;;;;15.40;1.00;;;;;;5074326;28;20003;-73
2023/04/27 12:13:05;;;;;;;;;;;15.40;1.00;;;;;;5074749;28;19914;-75
2023/04/27 12:15:30;;;;;;;;;;;15.40;1.00;;;;;;5074636;28;20003;-74
2023/04/27 12:17:56;;;;;;;;;;;15.30;99.90;;;;;;5074258;28;19954;-74
2023/04/27 12:20:21;;;;;;;;;;;15.40;1.00;;;;;;5074365;28;20001;-75
2023/04/27 12:22:47;;;;;;;;;;;15.50;1.00;;;;;;5074071;28;19920;-75
2023/04/27 12:25:13;;;;;;;;;;;15.60;99.90;;;;;;5074054;28;19908;-73
2023/04/27 12:27:39;;;;;;;;;;;15.70;99.90;;;;;;5056177;28;19909;-75
2023/04/27 12:30:05;;;;;;;;;;;15.60;99.90;;;;;;5074023;28;20400;-73
2023/04/27 12:32:31;;;;;;;;;;;15.60;1.00;;;;;;5074125;28;19917;-74
2023/04/27 12:34:56;;;;;;;;;;;15.80;1.00;;;;;;5073968;28;19916;-73
2023/04/27 12:37:22;;;;;;;;;;;15.90;99.90;;;;;;5074101;28;19995;-73
2023/04/27 12:39:47;;;;;;;;;;;16.10;99.90;;;;;;5073927;28;19912;-75
2023/04/27 12:42:13;;;;;;;;;;;16.20;99.90;;;;;;5073815;28;19966;-75
2023/04/27 12:44:40;;;;;;;;;;;16.20;99.90;;;;;;5073842;28;19920;-74
2023/04/27 12:47:05;;;;;;;;;;;16.20;99.90;;;;;;5073833;28;19951;-73
2023/04/27 12:49:31;;;;;;;;;;;16.20;99.90;;;;;;5074242;28;19919;-73
2023/04/27 12:51:57;;;;;;;;;;;16.30;99.90;;;;;;5073796;28;19958;-74
2023/04/27 12:54:22;;;;;;;;;;;16.70;99.90;;;;;;5055768;28;20332;-74
2023/04/27 12:56:48;;;;;;;;;;;16.80;99.90;;;;;;5073721;28;20288;-74
2023/04/27 12:59:15;;;;;;;;;;;16.70;99.90;;;;;;5073587;28;20369;-74
2023/04/27 13:01:41;;;;;;;;;;;16.70;99.90;;;;;;5073648;28;20477;-72
2023/04/27 13:04:07;;;;;;;;;;;16.70;99.90;;;;;;5073676;28;20065;-74
2023/04/27 13:06:33;;;;;;;;;;;16.80;99.90;;;;;;5073572;28;19914;-74
2023/04/27 13:08:58;;;;;;;;;;;16.90;99.90;;;;;;5073737;28;19999;-72
2023/04/27 13:11:24;;;;;;;;;;;16.70;99.90;;;;;;5075429;28;20299;-75
2023/04/27 13:13:50;;;;;;;;;;;16.50;99.90;;;;;;5080312;28;19965;-76
2023/04/27 13:16:18;;;;;;;;;;;16.50;99.90;;;;;;5080132;28;19908;-74
2023/04/27 13:18:48;;;;;;;;;;;16.50;99.90;;;;;;5080159;28;20352;-72
2023/04/27 13:21:17;;;;;;;;;;;16.60;1.00;;;;;;5061891;28;20390;-73
2023/04/27 13:23:43;;;;;;;;;;;16.50;99.90;;;;;;5080122;28;19913;-73
2023/04/27 13:26:10;;;;;;;;;;;16.60;99.90;;;;;;5080202;28;19915;-74
2023/04/27 13:28:35;;;;;;;;;;;16.50;99.90;;;;;;5080477;28;19916;-74
2023/04/27 13:31:01;;;;;;;;;;;16.50;99.90;;;;;;5080107;28;19912;-74
2023/04/27 13:33:26;;;;;;;;;;;16.50;99.90;;;;;;5080165;28;20041;-75
2023/04/27 13:35:52;;;;;;;;;;;16.50;99.90;;;;;;5062036;28;19915;-73
2023/04/27 13:38:18;;;;;;;;;;;16.70;1.00;;;;;;5079960;28;19913;-72
2023/04/27 13:40:43;;;;;;;;;;;16.90;99.90;;;;;;5080183;28;20418;-75
2023/04/27 13:43:09;;;;;;;;;;;17.00;99.90;;;;;;5079883;28;19912;-75
2023/04/27 13:45:34;;;;;;;;;;;17.10;99.90;;;;;;5079921;28;20000;-73
2023/04/27 13:48:00;;;;;;;;;;;17.20;99.90;;;;;;5079915;28;19908;-75
2023/04/27 13:50:26;;;;;;;;;;;17.30;99.90;;;;;;5079871;28;19912;-75
2023/04/27 13:52:51;;;;;;;;;;;17.40;99.90;;;;;;5079980;28;19913;-74
2023/04/27 13:55:17;;;;;;;;;;;17.40;99.90;;;;;;5079981;28;20003;-72
2023/04/27 13:57:42;;;;;;;;;;;17.30;99.90;;;;;;5079758;28;20315;-72
2023/04/27 14:00:10;;;;;;;;;;;17.30;99.90;;;;;;5079981;28;19948;-72
2023/04/27 14:02:38;;;;;;;;;;;17.20;99.90;;;;;;5079580;28;19908;-74
2023/04/27 14:05:04;;;;;;;;;;;17.10;99.90;;;;;;5079767;28;19916;-76
2023/04/27 14:07:33;;;;;;;;;;;17.20;99.90;;;;;;5079740;28;19908;-76
2023/04/27 14:09:59;;;;;;;;;;;17.10;99.90;;;;;;5079716;28;20352;-74
2023/04/27 14:12:24;;;;;;;;;;;17.30;99.90;;;;;;5079996;28;20373;-73
2023/04/27 14:14:50;;;;;;;;;;;17.30;99.90;;;;;;5079674;28;19908;-74
2023/04/27 14:17:16;;;;;;;;;;;17.20;99.90;;;;;;5079665;28;19916;-74